createdAt,value
2022-12-04T00:02:21.239Z,124
2022-12-04T00:05:26.557Z,126
2022-12-04T00:08:31.839Z,127
2022-12-04T00:11:37.177Z,130
2022-12-04T00:15:26.570Z,126
2022-12-04T00:18:24.840Z,119
2022-12-04T00:21:30.160Z,124
2022-12-04T00:24:35.453Z,119
2022-12-04T00:28:17.800Z,127
2022-12-04T00:31:23.180Z,114
2022-12-04T00:34:28.441Z,115
2022-12-04T00:37:33.726Z,120
2022-12-04T00:40:39.079Z,125
2022-12-04T00:44:21.433Z,121
2022-12-04T00:47:26.791Z,108
2022-12-04T00:50:23.874Z,106
2022-12-04T00:53:29.155Z,97
2022-12-04T00:56:34.454Z,107
2022-12-04T01:00:16.821Z,105
2022-12-04T01:03:22.187Z,102
2022-12-04T01:06:27.484Z,96
2022-12-04T01:09:32.753Z,98
2022-12-04T01:12:38.097Z,95
2022-12-04T01:16:20.473Z,94
2022-12-04T01:19:25.782Z,91
2022-12-04T01:22:31.082Z,93
2022-12-04T01:25:36.396Z,91
2022-12-04T01:29:18.734Z,95
2022-12-04T01:32:24.092Z,95
2022-12-04T01:35:29.398Z,91
2022-12-04T01:38:34.704Z,97
2022-12-04T01:42:17.055Z,94
2022-12-04T01:45:22.384Z,100
2022-12-04T01:50:10.643Z,103
2022-12-04T01:52:38.916Z,99
2022-12-04T01:56:21.299Z,102
2022-12-04T01:59:26.644Z,100
2022-12-04T02:02:32.016Z,103
2022-12-04T02:05:37.274Z,97
2022-12-04T02:09:24.706Z,92
2022-12-04T02:12:24.907Z,95
2022-12-04T02:15:30.202Z,101
2022-12-04T02:18:35.524Z,99
2022-12-04T02:22:17.879Z,88
2022-12-04T02:25:23.222Z,95
2022-12-04T02:28:28.503Z,85
2022-12-04T02:31:33.818Z,86
2022-12-04T02:34:39.159Z,85
2022-12-04T02:38:21.521Z,86
2022-12-04T02:41:26.806Z,85
2022-12-04T02:44:32.086Z,86
2022-12-04T02:47:37.407Z,83
2022-12-04T02:50:42.756Z,82
2022-12-04T02:54:16.913Z,95
2022-12-04T02:57:22.222Z,91
2022-12-04T03:00:27.542Z,82
2022-12-04T03:03:32.819Z,88
2022-12-04T03:06:38.175Z,110
2022-12-04T03:10:20.524Z,89
2022-12-04T03:13:25.826Z,87
2022-12-04T03:16:31.207Z,85
2022-12-04T03:19:36.493Z,88
2022-12-04T03:23:18.845Z,87
2022-12-04T03:26:24.172Z,94
2022-12-04T03:29:29.450Z,84
2022-12-04T03:32:34.739Z,82
2022-12-04T03:36:17.106Z,82
2022-12-04T03:39:22.419Z,85
2022-12-04T03:42:27.751Z,94
2022-12-04T03:45:33.041Z,83
2022-12-04T03:50:21.363Z,86
2022-12-04T03:53:26.657Z,94
2022-12-04T03:56:31.997Z,91
2022-12-04T03:59:37.311Z,81
2022-12-04T04:03:19.646Z,87
2022-12-04T04:06:24.936Z,91
2022-12-04T04:11:21.464Z,89
2022-12-04T04:14:26.749Z,90
2022-12-04T04:17:36.700Z,81
2022-12-04T04:20:37.355Z,93
2022-12-04T04:24:19.773Z,91
2022-12-04T04:27:25.046Z,86
2022-12-04T04:30:30.368Z,91
2022-12-04T04:33:35.700Z,91
2022-12-04T04:37:18.052Z,92
2022-12-04T04:40:23.327Z,98
2022-12-04T04:43:28.675Z,97
2022-12-04T04:46:34.040Z,96
2022-12-04T04:49:39.300Z,96
2022-12-04T04:53:13.439Z,98
2022-12-04T04:56:18.785Z,91
2022-12-04T04:59:24.068Z,93
2022-12-04T05:02:29.399Z,103
2022-12-04T05:05:34.683Z,100
2022-12-04T05:09:17.118Z,91
2022-12-04T05:12:22.405Z,103
2022-12-04T05:15:27.682Z,98
2022-12-04T05:18:33.072Z,105
2022-12-04T05:21:38.305Z,107
2022-12-04T05:25:20.670Z,105
2022-12-04T05:28:29.159Z,104
2022-12-04T05:31:31.342Z,109
2022-12-04T05:34:36.621Z,107
2022-12-04T05:38:18.961Z,105
2022-12-04T05:41:24.286Z,110
2022-12-04T05:44:29.588Z,103
2022-12-04T05:47:34.926Z,102
2022-12-04T05:50:32.014Z,111
2022-12-04T05:53:37.336Z,106
2022-12-04T05:57:19.693Z,103
2022-12-04T06:00:25.006Z,111
2022-12-04T06:03:30.366Z,111
2022-12-04T06:06:35.602Z,112
2022-12-04T06:10:19.085Z,108
2022-12-04T06:13:23.323Z,110
2022-12-04T06:16:31.790Z,113
2022-12-04T06:19:33.926Z,111
2022-12-04T06:23:16.311Z,107
2022-12-04T06:26:21.592Z,108
2022-12-04T06:29:26.900Z,102
2022-12-04T06:32:32.234Z,101
2022-12-04T06:35:37.553Z,105
2022-12-04T06:39:19.929Z,106
2022-12-04T06:42:25.233Z,107
2022-12-04T06:45:30.592Z,96
2022-12-04T06:48:35.850Z,101
2022-12-04T06:52:10.045Z,89
2022-12-04T06:54:38.245Z,89
2022-12-04T06:58:20.629Z,88
2022-12-04T07:01:25.934Z,86
2022-12-04T07:04:31.246Z,86
2022-12-04T07:07:36.540Z,90
2022-12-04T07:11:18.920Z,83
2022-12-04T07:14:24.226Z,87
2022-12-04T07:17:29.552Z,101
2022-12-04T07:22:26.091Z,84
2022-12-04T07:25:31.365Z,86
2022-12-04T07:28:36.682Z,86
2022-12-04T07:32:19.045Z,89
2022-12-04T07:35:24.328Z,101
2022-12-04T07:38:29.655Z,85
2022-12-04T07:41:34.972Z,87
2022-12-04T07:45:18.350Z,81
2022-12-04T07:48:22.646Z,84
2022-12-04T07:51:19.759Z,86
2022-12-04T07:54:25.088Z,82
2022-12-04T07:57:30.380Z,76
2022-12-04T08:00:35.664Z,82
2022-12-04T08:04:18.107Z,81
2022-12-04T08:07:23.369Z,77
2022-12-04T08:10:28.747Z,81
2022-12-04T08:13:33.963Z,87
2022-12-04T08:16:39.362Z,85
2022-12-04T08:20:21.672Z,83
2022-12-04T08:23:26.969Z,82
2022-12-04T08:26:32.292Z,82
2022-12-04T08:29:37.569Z,80
2022-12-04T08:33:19.954Z,82
2022-12-04T08:36:25.241Z,84
2022-12-04T08:39:30.557Z,87
2022-12-04T08:42:35.892Z,84
2022-12-04T08:46:18.273Z,81
2022-12-04T08:49:23.556Z,81
2022-12-04T08:52:20.667Z,86
2022-12-04T08:55:26.016Z,84
2022-12-04T08:58:31.327Z,80
2022-12-04T09:01:36.679Z,81
2022-12-04T09:05:19.018Z,88
2022-12-04T09:08:24.274Z,87
2022-12-04T09:11:29.627Z,82
2022-12-04T09:14:34.886Z,76
2022-12-04T09:18:17.286Z,81
2022-12-04T09:21:22.613Z,77
2022-12-04T09:24:27.902Z,83
2022-12-04T09:27:33.209Z,80
2022-12-04T09:30:38.589Z,78
2022-12-04T09:34:20.867Z,81
2022-12-04T09:37:26.215Z,77
2022-12-04T09:40:37.382Z,74
2022-12-04T09:43:36.827Z,81
2022-12-04T09:47:19.211Z,89
2022-12-04T09:50:24.548Z,78
2022-12-04T09:53:21.634Z,78
2022-12-04T09:56:26.963Z,93
2022-12-04T09:59:32.234Z,90
2022-12-04T10:02:37.686Z,85
2022-12-04T10:06:19.909Z,87
2022-12-04T10:09:25.245Z,87
2022-12-04T10:12:30.531Z,91
2022-12-04T10:15:35.881Z,91
2022-12-04T10:19:18.330Z,95
2022-12-04T10:22:23.505Z,88
2022-12-04T10:25:28.822Z,89
2022-12-04T10:28:34.107Z,93
2022-12-04T10:31:39.542Z,87
2022-12-04T10:35:21.828Z,90
2022-12-04T10:38:27.110Z,90
2022-12-04T10:41:32.442Z,98
2022-12-04T10:44:37.720Z,91
2022-12-04T10:47:06.135Z,85
2022-12-04T10:49:34.239Z,84
2022-12-04T10:52:02.494Z,88
2022-12-04T10:54:22.534Z,95
2022-12-04T10:57:27.873Z,93
2022-12-04T11:00:33.161Z,90
2022-12-04T11:03:38.574Z,98
2022-12-04T11:07:20.836Z,90
2022-12-04T11:10:26.145Z,95
2022-12-04T11:13:31.435Z,91
2022-12-04T11:16:36.826Z,89
2022-12-04T11:20:19.173Z,82
2022-12-04T11:23:24.465Z,87
2022-12-04T11:26:29.792Z,92
2022-12-04T11:29:35.031Z,96
2022-12-04T11:33:17.422Z,78
2022-12-04T11:36:22.738Z,91
2022-12-04T11:39:28.061Z,93
2022-12-04T11:42:33.349Z,90
2022-12-04T11:45:38.706Z,92
2022-12-04T11:49:21.016Z,88
2022-12-04T11:54:09.357Z,87
2022-12-04T11:56:37.637Z,92
2022-12-04T12:00:19.981Z,89
2022-12-04T12:03:25.355Z,84
2022-12-04T12:06:30.573Z,80
2022-12-04T12:09:35.877Z,92
2022-12-04T12:13:18.276Z,88
2022-12-04T12:16:23.638Z,91
2022-12-04T12:19:28.889Z,94
2022-12-04T12:22:34.220Z,98
2022-12-04T12:25:39.518Z,108
2022-12-04T12:29:21.853Z,105
2022-12-04T12:32:27.204Z,98
2022-12-04T12:35:32.513Z,102
2022-12-04T12:38:37.809Z,93
2022-12-04T12:43:34.319Z,103
2022-12-04T12:46:39.626Z,103
2022-12-04T12:50:21.990Z,103
2022-12-04T12:53:19.173Z,101
2022-12-04T12:56:24.431Z,98
2022-12-04T12:59:29.741Z,109
2022-12-04T13:02:35.125Z,105
2022-12-04T13:06:17.392Z,106
2022-12-04T13:09:22.696Z,112
2022-12-04T13:12:28.043Z,109
2022-12-04T13:15:33.338Z,106
2022-12-04T13:18:38.672Z,102
2022-12-04T13:22:20.990Z,103
2022-12-04T13:25:26.322Z,106
2022-12-04T13:28:31.611Z,107
2022-12-04T13:31:36.999Z,102
2022-12-04T13:35:19.277Z,103
2022-12-04T13:38:24.599Z,98
2022-12-04T13:41:29.907Z,93
2022-12-04T13:44:35.205Z,96
2022-12-04T13:48:17.593Z,96
2022-12-04T13:51:22.926Z,104
2022-12-04T13:54:20.003Z,99
2022-12-04T13:57:25.333Z,106
2022-12-04T14:00:30.687Z,99
2022-12-04T14:03:35.969Z,97
2022-12-04T14:07:18.340Z,101
2022-12-04T14:10:23.623Z,96
2022-12-04T14:13:28.939Z,102
2022-12-04T14:16:34.277Z,99
2022-12-04T14:20:16.649Z,104
2022-12-04T14:23:21.925Z,96
2022-12-04T14:26:42.804Z,116
2022-12-04T14:29:32.536Z,98
2022-12-04T14:32:37.907Z,108
2022-12-04T14:36:20.267Z,108
2022-12-04T14:39:25.560Z,110
2022-12-04T14:42:30.846Z,121
2022-12-04T14:46:13.267Z,114
2022-12-04T14:49:18.543Z,122
2022-12-04T14:52:23.804Z,120
2022-12-04T14:55:20.994Z,119
2022-12-04T14:58:26.314Z,111
2022-12-04T15:01:31.622Z,119
2022-12-04T15:04:36.934Z,113
2022-12-04T15:08:19.331Z,106
2022-12-04T15:11:24.582Z,115
2022-12-04T15:14:29.869Z,116
2022-12-04T15:17:35.189Z,122
2022-12-04T15:21:17.572Z,118
2022-12-04T15:24:22.849Z,114
2022-12-04T15:27:32.248Z,118
2022-12-04T15:30:33.494Z,111
2022-12-04T15:33:38.820Z,101
2022-12-04T15:37:21.184Z,103
2022-12-04T15:40:26.457Z,84
2022-12-04T15:43:31.790Z,99
2022-12-04T15:46:37.139Z,87
2022-12-04T15:50:19.482Z,94
2022-12-04T15:53:24.754Z,96
2022-12-04T15:56:30.065Z,88
2022-12-04T15:59:35.365Z,94
2022-12-04T16:03:17.832Z,100
2022-12-04T16:06:14.890Z,96
2022-12-04T16:09:20.224Z,97
2022-12-04T16:12:25.516Z,98
2022-12-04T16:15:30.774Z,102
2022-12-04T16:18:36.131Z,95
2022-12-04T16:22:20.469Z,99
2022-12-04T16:25:23.800Z,94
2022-12-04T16:28:29.088Z,95
2022-12-04T16:31:34.469Z,88
2022-12-04T16:34:39.690Z,99
2022-12-04T16:38:22.093Z,104
2022-12-04T16:41:27.432Z,112
2022-12-04T16:44:32.732Z,111
2022-12-04T16:47:38.023Z,134
2022-12-04T16:51:20.422Z,132
2022-12-04T16:54:25.718Z,113
2022-12-04T16:57:31.007Z,120
2022-12-04T17:00:36.343Z,127
2022-12-04T17:04:18.800Z,127
2022-12-04T17:07:15.841Z,125
2022-12-04T17:10:23.912Z,116
2022-12-04T17:13:26.472Z,110
2022-12-04T17:16:31.795Z,118
2022-12-04T17:19:37.052Z,110
2022-12-04T17:23:19.388Z,116
2022-12-04T17:26:24.720Z,112
2022-12-04T17:29:30.029Z,117
2022-12-04T17:32:35.330Z,101
2022-12-04T17:36:17.744Z,102
2022-12-04T17:39:23.048Z,113
2022-12-04T17:42:28.328Z,97
2022-12-04T17:45:33.652Z,101
2022-12-04T17:49:15.997Z,115
2022-12-04T17:52:21.290Z,115
2022-12-04T17:55:26.685Z,114
2022-12-04T17:58:31.949Z,107
2022-12-04T18:01:37.309Z,114
2022-12-04T18:05:19.630Z,114
2022-12-04T18:08:16.762Z,122
2022-12-04T18:11:22.057Z,116
2022-12-04T18:14:27.391Z,115
2022-12-04T18:17:32.690Z,120
2022-12-04T18:20:37.955Z,122
2022-12-04T18:24:20.337Z,128
2022-12-04T18:27:25.685Z,118
2022-12-04T18:30:31.010Z,116
2022-12-04T18:33:36.273Z,129
2022-12-04T18:37:18.664Z,121
2022-12-04T18:40:23.949Z,125
2022-12-04T18:43:29.248Z,128
2022-12-04T18:46:34.616Z,115
2022-12-04T18:49:39.898Z,115
2022-12-04T18:53:22.248Z,122
2022-12-04T18:56:27.565Z,123
2022-12-04T18:59:32.915Z,125
2022-12-04T19:02:38.290Z,132
2022-12-04T19:06:20.689Z,133
2022-12-04T19:09:41.184Z,123
2022-12-04T19:12:31.170Z,133
2022-12-04T19:15:36.488Z,124
2022-12-04T19:19:10.689Z,130
2022-12-04T19:21:38.930Z,126
2022-12-04T19:25:21.296Z,132
2022-12-04T19:28:26.637Z,130
2022-12-04T19:31:32.040Z,124
2022-12-04T19:34:37.276Z,129
2022-12-04T19:38:19.578Z,124
2022-12-04T19:41:24.893Z,128
2022-12-04T19:44:49.014Z,124
2022-12-04T19:47:35.523Z,130
2022-12-04T19:51:17.951Z,123
2022-12-04T19:54:23.282Z,127
2022-12-04T19:57:28.599Z,113
2022-12-04T20:00:33.946Z,111
2022-12-04T20:04:16.231Z,118
2022-12-04T20:07:21.464Z,116
2022-12-04T20:10:26.803Z,108
2022-12-04T20:13:32.150Z,113
2022-12-04T20:16:37.541Z,114
2022-12-04T20:20:19.780Z,113
2022-12-04T20:23:25.128Z,122
2022-12-04T20:28:14.538Z,112
2022-12-04T20:31:18.920Z,121
2022-12-04T20:34:24.123Z,112
2022-12-04T20:37:29.309Z,120
2022-12-04T20:40:34.641Z,121
2022-12-04T20:44:17.023Z,116
2022-12-04T20:47:22.354Z,116
2022-12-04T20:50:27.693Z,113
2022-12-04T20:53:32.920Z,116
2022-12-04T20:56:38.242Z,115
2022-12-04T21:00:20.692Z,118
2022-12-04T21:03:25.903Z,115
2022-12-04T21:06:34.405Z,118
2022-12-04T21:09:36.564Z,124
2022-12-04T21:13:18.875Z,112
2022-12-04T21:16:24.262Z,119
2022-12-04T21:19:29.528Z,121
2022-12-04T21:22:34.875Z,111
2022-12-04T21:26:17.228Z,116
2022-12-04T21:29:14.327Z,130
2022-12-04T21:32:19.663Z,117
2022-12-04T21:35:24.945Z,110
2022-12-04T21:38:30.263Z,103
2022-12-04T21:41:35.569Z,103
2022-12-04T21:45:17.952Z,108
2022-12-04T21:48:23.229Z,104
2022-12-04T21:51:55.505Z,105
2022-12-04T21:54:33.899Z,102
2022-12-04T21:57:39.202Z,101
2022-12-04T22:01:21.636Z,96
2022-12-04T22:04:26.859Z,89
2022-12-04T22:07:32.213Z,97
2022-12-04T22:10:37.467Z,86
2022-12-04T22:14:19.829Z,90
2022-12-04T22:17:25.146Z,90
2022-12-04T22:20:30.432Z,88
2022-12-04T22:23:35.802Z,98
2022-12-04T22:27:18.166Z,97
2022-12-04T22:30:15.320Z,98
2022-12-04T22:33:20.558Z,94
2022-12-04T22:36:25.919Z,95
2022-12-04T22:39:31.209Z,93
2022-12-04T22:42:36.503Z,94
2022-12-04T22:46:18.953Z,99
2022-12-04T22:49:24.191Z,102
2022-12-04T22:52:29.492Z,96
2022-12-04T22:55:34.831Z,93
2022-12-04T22:59:17.149Z,103
2022-12-04T23:02:22.470Z,102
2022-12-04T23:05:27.830Z,86
2022-12-04T23:08:33.129Z,80
2022-12-04T23:11:38.412Z,86
2022-12-04T23:15:20.744Z,91
2022-12-04T23:18:26.142Z,91
2022-12-04T23:21:31.473Z,89
2022-12-04T23:24:36.701Z,89
2022-12-04T23:30:39.159Z,85
2022-12-04T23:34:21.517Z,81
2022-12-04T23:37:26.840Z,85
2022-12-04T23:40:32.178Z,79
2022-12-04T23:44:14.451Z,81
2022-12-04T23:47:19.925Z,86
2022-12-04T23:50:25.134Z,75
2022-12-04T23:53:30.430Z,75
2022-12-04T23:56:35.763Z,77
